Terminal Aerodrome Forecast
Issued by NWS

Home | Current Version | Previous Version | Text Only | Print | Product List | Glossary On
Versions: 1 2 3 4 5 6 7 8 9 10 11 12 13 14 15 16 17 18 19 20 21
000
FTUS45 KABQ 301740
TAFLVS
TAF
KLVS 301740Z 3018/0118 14007KT P6SM BKN070
     FM302100 16014G20KT P6SM VCSH BKN060
     FM010100 07014G22KT P6SM OVC015
     FM010300 03015G25KT 4SM -RA OVC010
     FM010600 02018G30KT 2SM -RA BR OVC004
     FM011500 02015G25KT 4SM -RA OVC010=

USA.gov is the U.S. government's official web portal to all federal, state and local government web resources and services.